createdAt,value
2016-10-03T00:00:45.926Z,0
2016-10-03T00:01:45.898Z,0
2016-10-03T00:02:45.872Z,0
2016-10-03T00:03:45.841Z,0
2016-10-03T00:04:45.796Z,0
2016-10-03T00:05:45.798Z,0
2016-10-03T00:06:45.791Z,0
2016-10-03T00:07:45.760Z,0
2016-10-03T00:08:45.726Z,0
2016-10-03T00:09:45.747Z,0
2016-10-03T00:10:45.674Z,0
2016-10-03T00:11:45.709Z,0
2016-10-03T00:12:45.668Z,0
2016-10-03T00:13:45.662Z,0
2016-10-03T00:14:45.613Z,0
2016-10-03T00:15:45.577Z,0
2016-10-03T00:16:45.591Z,0
2016-10-03T00:17:45.552Z,0
2016-10-03T00:18:45.561Z,0
2016-10-03T00:19:45.536Z,0
2016-10-03T00:20:45.527Z,0
2016-10-03T00:21:45.490Z,0
2016-10-03T00:22:45.475Z,0
2016-10-03T00:23:45.461Z,0
2016-10-03T00:24:45.520Z,0
2016-10-03T00:25:45.429Z,0
2016-10-03T00:26:45.397Z,0
2016-10-03T00:27:45.368Z,0
2016-10-03T00:28:45.356Z,0
2016-10-03T00:29:45.332Z,0
2016-10-03T00:30:45.302Z,0
2016-10-03T00:31:45.600Z,0
2016-10-03T00:32:45.258Z,0
2016-10-03T00:33:45.241Z,0
2016-10-03T00:34:45.253Z,0
2016-10-03T00:35:45.206Z,0
2016-10-03T00:36:45.189Z,0
2016-10-03T00:37:45.149Z,0
2016-10-03T00:38:45.170Z,0
2016-10-03T00:39:45.147Z,0
2016-10-03T00:40:45.099Z,0
2016-10-03T00:41:45.101Z,0
2016-10-03T00:42:45.075Z,0
2016-10-03T00:43:45.042Z,0
2016-10-03T00:44:45.034Z,0
2016-10-03T00:45:45.012Z,0
2016-10-03T00:46:44.981Z,0
2016-10-03T00:47:44.964Z,0
2016-10-03T00:48:44.946Z,0
2016-10-03T00:49:44.945Z,0
2016-10-03T00:50:44.887Z,0
2016-10-03T00:51:44.880Z,0
2016-10-03T00:52:44.882Z,0
2016-10-03T00:53:44.842Z,0
2016-10-03T00:54:44.813Z,0
2016-10-03T00:55:44.823Z,0
2016-10-03T00:56:44.785Z,0
2016-10-03T00:57:44.736Z,0
2016-10-03T00:58:44.716Z,0
2016-10-03T00:59:44.710Z,0
2016-10-03T01:00:44.704Z,0
2016-10-03T01:01:44.696Z,0
2016-10-03T01:02:44.647Z,0
2016-10-03T01:03:44.653Z,0
2016-10-03T01:04:44.640Z,0
2016-10-03T01:05:44.618Z,0
2016-10-03T01:06:44.576Z,0
2016-10-03T01:07:44.580Z,0
2016-10-03T01:08:44.555Z,0
2016-10-03T01:09:44.514Z,0
2016-10-03T01:10:44.517Z,0
2016-10-03T01:11:44.482Z,0
2016-10-03T01:12:44.459Z,0
2016-10-03T01:13:44.437Z,0
2016-10-03T01:14:44.425Z,0
2016-10-03T01:15:44.377Z,0
2016-10-03T01:16:44.387Z,0
2016-10-03T01:17:44.339Z,0
2016-10-03T01:18:44.353Z,0
2016-10-03T01:19:44.348Z,0
2016-10-03T01:20:44.308Z,0
2016-10-03T01:21:44.273Z,0
2016-10-03T01:22:44.274Z,0
2016-10-03T01:23:44.270Z,0
2016-10-03T01:24:44.338Z,0
2016-10-03T01:25:44.218Z,0
2016-10-03T01:26:44.201Z,0
2016-10-03T01:27:44.168Z,0
2016-10-03T01:28:44.157Z,0
2016-10-03T01:29:44.124Z,0
2016-10-03T01:30:44.083Z,0
2016-10-03T01:31:44.084Z,0
2016-10-03T01:32:44.039Z,0
2016-10-03T01:33:44.028Z,0
2016-10-03T01:34:44.021Z,0
2016-10-03T01:35:44.019Z,0
2016-10-03T01:36:43.979Z,0
2016-10-03T01:37:43.950Z,0
2016-10-03T01:38:43.939Z,0
2016-10-03T01:39:43.934Z,0
2016-10-03T01:40:43.901Z,0
2016-10-03T01:41:43.896Z,0
2016-10-03T01:42:43.867Z,0
2016-10-03T01:43:43.861Z,0
2016-10-03T01:44:43.827Z,0
2016-10-03T01:45:43.815Z,0
2016-10-03T01:46:43.785Z,0
2016-10-03T01:47:43.760Z,0
2016-10-03T01:48:43.763Z,0
2016-10-03T01:49:43.734Z,0
2016-10-03T01:50:43.687Z,0
2016-10-03T01:51:43.685Z,0
2016-10-03T01:52:43.675Z,0
2016-10-03T01:53:43.644Z,0
2016-10-03T01:54:43.635Z,0
2016-10-03T01:55:43.615Z,0
2016-10-03T01:56:43.596Z,0
2016-10-03T01:57:43.561Z,0
2016-10-03T01:58:43.518Z,0
2016-10-03T01:59:43.520Z,0
2016-10-03T02:00:43.512Z,0
2016-10-03T02:01:43.687Z,0
2016-10-03T02:02:43.473Z,0
2016-10-03T02:03:43.414Z,0
2016-10-03T02:04:43.435Z,0
2016-10-03T02:05:43.390Z,0
2016-10-03T02:06:43.372Z,0
2016-10-03T02:07:43.362Z,0
2016-10-03T02:08:43.356Z,0
2016-10-03T02:09:43.348Z,0
2016-10-03T02:10:43.293Z,0
2016-10-03T02:11:43.272Z,0
2016-10-03T02:12:43.237Z,0
2016-10-03T02:13:43.240Z,0
2016-10-03T02:14:43.216Z,0
2016-10-03T02:15:43.178Z,0
2016-10-03T02:16:43.191Z,0
2016-10-03T02:17:43.167Z,0
2016-10-03T02:18:43.145Z,0
2016-10-03T02:19:43.131Z,0
2016-10-03T02:20:43.127Z,0
2016-10-03T02:21:43.097Z,0
2016-10-03T02:22:43.082Z,0
2016-10-03T02:23:43.046Z,0
2016-10-03T02:24:43.045Z,0
2016-10-03T02:25:43.002Z,0
2016-10-03T02:26:42.967Z,0
2016-10-03T02:27:42.975Z,0
2016-10-03T02:28:42.931Z,0
2016-10-03T02:29:42.912Z,0
2016-10-03T02:30:42.903Z,0
2016-10-03T02:31:42.871Z,0
2016-10-03T02:32:42.833Z,0
2016-10-03T02:33:42.845Z,0
2016-10-03T02:34:42.813Z,0
2016-10-03T02:35:42.800Z,0
2016-10-03T02:36:42.777Z,0
2016-10-03T02:37:42.755Z,0
2016-10-03T02:38:42.736Z,0
2016-10-03T02:39:42.710Z,0
2016-10-03T02:40:42.703Z,0
2016-10-03T02:41:42.668Z,0
2016-10-03T02:42:42.636Z,0
2016-10-03T02:43:42.629Z,0
2016-10-03T02:44:42.602Z,0
2016-10-03T02:45:42.577Z,0
2016-10-03T02:46:42.558Z,0
2016-10-03T02:47:42.621Z,0
2016-10-03T02:48:42.537Z,0
2016-10-03T02:49:42.533Z,0
2016-10-03T02:50:42.492Z,0
2016-10-03T02:51:42.473Z,0
2016-10-03T02:52:42.433Z,0
2016-10-03T02:53:42.430Z,0
2016-10-03T02:54:42.419Z,0
2016-10-03T02:55:42.389Z,0
2016-10-03T02:56:42.385Z,0
2016-10-03T02:57:42.338Z,0
2016-10-03T02:58:42.322Z,0
2016-10-03T02:59:42.285Z,0
2016-10-03T03:00:42.270Z,0
2016-10-03T03:01:42.269Z,0
2016-10-03T03:02:42.262Z,0
2016-10-03T03:03:42.210Z,0
2016-10-03T03:04:42.192Z,0
2016-10-03T03:05:42.189Z,0
2016-10-03T03:06:42.170Z,0
2016-10-03T03:07:42.446Z,0
2016-10-03T03:08:42.125Z,0
2016-10-03T03:09:42.106Z,0
2016-10-03T03:10:42.059Z,0
2016-10-03T03:11:42.044Z,0
2016-10-03T03:12:42.055Z,0
2016-10-03T03:13:42.014Z,0
2016-10-03T03:14:41.992Z,0
2016-10-03T03:15:41.993Z,0
2016-10-03T03:16:41.965Z,0
2016-10-03T03:17:41.937Z,0
2016-10-03T03:18:41.904Z,0
2016-10-03T03:19:41.907Z,0
2016-10-03T03:20:41.871Z,0
2016-10-03T03:21:41.879Z,0
2016-10-03T03:22:41.826Z,0
2016-10-03T03:23:41.851Z,0
2016-10-03T03:24:41.818Z,0
2016-10-03T03:25:41.788Z,0
2016-10-03T03:26:41.751Z,0
2016-10-03T03:27:41.756Z,0
2016-10-03T03:28:41.710Z,0
2016-10-03T03:29:41.673Z,0
2016-10-03T03:30:41.654Z,0
2016-10-03T03:31:41.679Z,0
2016-10-03T03:32:41.625Z,0
2016-10-03T03:33:41.935Z,0
2016-10-03T03:34:41.573Z,0
2016-10-03T03:35:41.603Z,0
2016-10-03T03:36:41.569Z,0
2016-10-03T03:37:41.538Z,0
2016-10-03T03:38:41.508Z,0
2016-10-03T03:39:41.510Z,0
2016-10-03T03:40:41.467Z,0
2016-10-03T03:41:41.425Z,0
2016-10-03T03:42:41.737Z,0
2016-10-03T03:43:41.395Z,0
2016-10-03T03:44:41.399Z,0
2016-10-03T03:45:41.383Z,0
2016-10-03T03:46:41.360Z,0
2016-10-03T03:47:41.354Z,0
2016-10-03T03:48:41.338Z,0
2016-10-03T03:49:41.289Z,0
2016-10-03T03:50:41.257Z,0
2016-10-03T03:51:41.257Z,0
2016-10-03T03:52:41.228Z,0
2016-10-03T03:53:41.228Z,0
2016-10-03T03:54:41.170Z,0
2016-10-03T03:55:41.176Z,0
2016-10-03T03:56:41.136Z,0
2016-10-03T03:57:41.110Z,0
2016-10-03T03:58:41.180Z,0
2016-10-03T03:59:41.099Z,0
2016-10-03T04:00:41.068Z,0
2016-10-03T04:01:41.050Z,0
2016-10-03T04:02:41.055Z,0
2016-10-03T04:03:40.973Z,0
2016-10-03T04:04:41.005Z,0
2016-10-03T04:05:40.958Z,0
2016-10-03T04:06:40.951Z,0
2016-10-03T04:07:40.946Z,0
2016-10-03T04:08:40.915Z,0
2016-10-03T04:09:40.876Z,0
2016-10-03T04:10:40.860Z,0
2016-10-03T04:11:40.843Z,0
2016-10-03T04:12:40.825Z,0
2016-10-03T04:13:40.820Z,0
2016-10-03T04:14:40.795Z,0
2016-10-03T04:15:40.760Z,0
2016-10-03T04:16:40.738Z,0
2016-10-03T04:17:40.717Z,0
2016-10-03T04:18:40.701Z,0
2016-10-03T04:19:40.665Z,0
2016-10-03T04:20:40.645Z,0
2016-10-03T04:21:40.634Z,0
2016-10-03T04:22:40.619Z,0
2016-10-03T04:23:40.593Z,0
2016-10-03T04:24:40.571Z,0
2016-10-03T04:25:40.536Z,0
2016-10-03T04:26:40.544Z,0
2016-10-03T04:27:40.493Z,0
2016-10-03T04:28:40.502Z,0
2016-10-03T04:29:40.476Z,0
2016-10-03T04:30:40.468Z,0
2016-10-03T04:31:40.419Z,0
2016-10-03T04:32:40.398Z,0
2016-10-03T04:33:40.405Z,0
2016-10-03T04:34:40.371Z,0
2016-10-03T04:35:40.356Z,0
2016-10-03T04:36:40.357Z,0
2016-10-03T04:37:40.328Z,0
2016-10-03T04:38:40.314Z,0
2016-10-03T04:39:40.286Z,0
2016-10-03T04:40:40.249Z,0
2016-10-03T04:41:40.248Z,0
2016-10-03T04:42:40.200Z,0
2016-10-03T04:43:40.205Z,0
2016-10-03T04:44:40.171Z,0
2016-10-03T04:45:40.143Z,0
2016-10-03T04:46:40.146Z,0
2016-10-03T04:47:40.145Z,0
2016-10-03T04:48:40.131Z,4
2016-10-03T04:49:40.097Z,4
2016-10-03T04:50:40.388Z,4
2016-10-03T04:51:40.059Z,4
2016-10-03T04:52:40.027Z,4
2016-10-03T04:53:40.020Z,4
2016-10-03T04:54:40.001Z,8
2016-10-03T04:55:39.971Z,8
2016-10-03T04:56:39.941Z,8
2016-10-03T04:57:39.923Z,12
2016-10-03T04:58:39.910Z,12
2016-10-03T04:59:39.909Z,16
2016-10-03T05:00:39.868Z,20
2016-10-03T05:01:39.847Z,24
2016-10-03T05:02:39.822Z,28
2016-10-03T05:03:39.819Z,32
2016-10-03T05:04:39.809Z,40
2016-10-03T05:05:39.780Z,48
2016-10-03T05:06:39.762Z,60
2016-10-03T05:07:39.739Z,68
2016-10-03T05:08:39.707Z,76
2016-10-03T05:09:39.687Z,92
2016-10-03T05:10:39.674Z,108
2016-10-03T05:11:39.687Z,128
2016-10-03T05:12:39.644Z,148
2016-10-03T05:13:39.610Z,168
2016-10-03T05:14:39.622Z,188
2016-10-03T05:15:39.785Z,212
2016-10-03T05:16:39.559Z,248
2016-10-03T05:17:39.854Z,276
2016-10-03T05:18:39.496Z,308
2016-10-03T05:19:39.513Z,336
2016-10-03T05:20:39.485Z,360
2016-10-03T05:21:39.459Z,380
2016-10-03T05:22:39.481Z,384
2016-10-03T05:23:39.446Z,392
2016-10-03T05:24:39.402Z,432
2016-10-03T05:25:39.383Z,476
2016-10-03T05:26:39.364Z,524
2016-10-03T05:27:39.334Z,568
2016-10-03T05:28:39.330Z,624
2016-10-03T05:29:39.314Z,696
2016-10-03T05:30:39.301Z,696
2016-10-03T05:31:39.259Z,684
2016-10-03T05:32:39.256Z,688
2016-10-03T05:33:39.218Z,652
2016-10-03T05:34:39.206Z,644
2016-10-03T05:35:39.205Z,680
2016-10-03T05:36:39.181Z,752
2016-10-03T05:37:39.337Z,800
2016-10-03T05:38:39.160Z,820
2016-10-03T05:39:39.387Z,784
2016-10-03T05:40:39.106Z,780
2016-10-03T05:41:39.067Z,772
2016-10-03T05:42:39.042Z,744
2016-10-03T05:43:39.216Z,768
2016-10-03T05:44:39.014Z,780
2016-10-03T05:45:38.992Z,800
2016-10-03T05:46:38.974Z,856
2016-10-03T05:47:38.972Z,824
2016-10-03T05:48:38.914Z,868
2016-10-03T05:49:38.915Z,880
2016-10-03T05:50:38.894Z,944
2016-10-03T05:51:38.876Z,968
2016-10-03T05:52:38.884Z,1028
2016-10-03T05:53:38.848Z,1052
2016-10-03T05:54:38.825Z,1120
2016-10-03T05:55:38.795Z,1172
2016-10-03T05:56:38.960Z,1244
2016-10-03T05:57:38.789Z,1272
2016-10-03T05:58:38.757Z,1436
2016-10-03T05:59:38.745Z,1588
2016-10-03T06:00:39.001Z,1444
2016-10-03T06:01:39.014Z,1560
2016-10-03T06:02:38.673Z,1816
2016-10-03T06:03:38.657Z,2444
2016-10-03T06:04:38.618Z,2964
2016-10-03T06:05:38.624Z,3412
2016-10-03T06:06:38.603Z,3460
2016-10-03T06:07:38.588Z,3752
2016-10-03T06:08:38.574Z,3972
2016-10-03T06:09:38.725Z,3660
2016-10-03T06:10:38.523Z,3356
2016-10-03T06:11:38.524Z,3052
2016-10-03T06:12:38.488Z,2952
2016-10-03T06:13:38.473Z,2980
2016-10-03T06:14:38.460Z,3556
2016-10-03T06:15:38.427Z,3876
2016-10-03T06:16:38.413Z,3932
2016-10-03T06:17:38.404Z,3384
2016-10-03T06:18:38.392Z,3028
2016-10-03T06:19:38.358Z,2928
2016-10-03T06:20:38.318Z,2748
2016-10-03T06:21:38.314Z,2748
2016-10-03T06:22:38.318Z,2608
2016-10-03T06:23:38.266Z,2596
2016-10-03T06:24:38.261Z,2784
2016-10-03T06:25:38.225Z,3152
2016-10-03T06:26:38.207Z,3984
2016-10-03T06:27:38.190Z,4524
2016-10-03T06:28:38.179Z,4888
2016-10-03T06:29:38.153Z,5620
2016-10-03T06:30:38.147Z,5988
2016-10-03T06:31:38.114Z,5596
2016-10-03T06:32:38.118Z,5444
2016-10-03T06:33:38.104Z,5336
2016-10-03T06:34:38.050Z,5608
2016-10-03T06:35:38.051Z,6428
2016-10-03T06:36:38.023Z,6856
2016-10-03T06:37:38.191Z,7120
2016-10-03T06:38:38.006Z,6880
2016-10-03T06:39:38.172Z,6904
2016-10-03T06:40:37.951Z,7200
2016-10-03T06:41:37.944Z,7896
2016-10-03T06:42:37.907Z,8064
2016-10-03T06:43:37.864Z,7864
2016-10-03T06:44:37.866Z,7360
2016-10-03T06:45:37.838Z,6932
2016-10-03T06:46:37.814Z,6796
2016-10-03T06:47:37.803Z,6488
2016-10-03T06:48:37.784Z,6088
2016-10-03T06:49:37.768Z,5412
2016-10-03T06:50:37.745Z,5284
2016-10-03T06:51:37.733Z,5720
2016-10-03T06:52:37.689Z,6216
2016-10-03T06:53:37.696Z,5656
2016-10-03T06:54:37.668Z,5988
2016-10-03T06:55:37.649Z,6584
2016-10-03T06:56:37.651Z,6568
2016-10-03T06:57:37.608Z,6636
2016-10-03T06:58:37.592Z,6860
2016-10-03T06:59:37.558Z,6532
2016-10-03T07:00:37.535Z,6496
2016-10-03T07:01:37.530Z,6140
2016-10-03T07:02:37.498Z,5928
2016-10-03T07:03:37.479Z,5612
2016-10-03T07:04:37.455Z,5156
2016-10-03T07:05:52.349Z,5192
2016-10-03T07:06:37.597Z,5236
2016-10-03T07:07:37.608Z,5652
2016-10-03T07:08:37.399Z,6684
2016-10-03T07:09:37.367Z,8812
2016-10-03T07:10:37.372Z,10304
2016-10-03T07:11:37.339Z,10276
2016-10-03T07:12:37.313Z,10316
2016-10-03T07:13:37.277Z,10944
2016-10-03T07:14:37.281Z,11536
2016-10-03T07:15:37.229Z,12612
2016-10-03T07:16:37.203Z,14004
2016-10-03T07:17:37.197Z,15160
2016-10-03T07:18:37.180Z,15468
2016-10-03T07:19:37.148Z,15004
2016-10-03T07:20:37.155Z,14152
2016-10-03T07:21:37.112Z,12984
2016-10-03T07:22:37.127Z,12312
2016-10-03T07:23:37.085Z,12224
2016-10-03T07:24:37.058Z,12400
2016-10-03T07:25:37.047Z,12584
2016-10-03T07:26:37.032Z,13040
2016-10-03T07:27:37.009Z,12684
2016-10-03T07:28:36.972Z,11696
2016-10-03T07:29:36.960Z,11064
2016-10-03T07:30:36.958Z,10560
2016-10-03T07:31:36.931Z,10252
2016-10-03T07:32:36.898Z,9716
2016-10-03T07:33:36.867Z,9024
2016-10-03T07:34:37.060Z,8912
2016-10-03T07:35:36.842Z,8964
2016-10-03T07:36:36.829Z,8884
2016-10-03T07:37:36.817Z,8912
2016-10-03T07:38:36.805Z,9772
2016-10-03T07:39:36.763Z,9664
2016-10-03T07:40:36.757Z,10820
2016-10-03T07:41:36.754Z,11048
2016-10-03T07:42:36.731Z,10364
2016-10-03T07:43:36.715Z,10528
2016-10-03T07:44:36.667Z,10256
2016-10-03T07:45:36.666Z,9672
2016-10-03T07:46:36.639Z,9368
2016-10-03T07:47:36.612Z,9780
2016-10-03T07:48:36.591Z,9812
2016-10-03T07:49:36.579Z,10700
2016-10-03T07:50:36.580Z,12188
2016-10-03T07:51:36.531Z,11616
2016-10-03T07:52:36.509Z,11192
2016-10-03T07:53:36.495Z,12048
2016-10-03T07:54:36.485Z,12988
2016-10-03T07:55:36.474Z,12180
2016-10-03T07:56:36.440Z,11416
2016-10-03T07:57:36.421Z,11920
2016-10-03T07:58:36.398Z,13380
2016-10-03T07:59:36.395Z,13424
2016-10-03T08:00:36.359Z,13288
2016-10-03T08:01:36.327Z,14020
2016-10-03T08:02:36.514Z,14544
2016-10-03T08:03:36.315Z,14056
2016-10-03T08:04:36.302Z,15040
2016-10-03T08:05:36.275Z,16184
2016-10-03T08:06:36.267Z,18272
2016-10-03T08:07:36.233Z,19360
2016-10-03T08:08:36.214Z,18880
2016-10-03T08:09:36.187Z,18816
2016-10-03T08:10:36.149Z,18944
2016-10-03T08:11:36.154Z,19136
2016-10-03T08:12:36.181Z,18240
2016-10-03T08:13:36.105Z,17600
2016-10-03T08:14:36.087Z,16916
2016-10-03T08:15:36.092Z,18112
2016-10-03T08:16:36.061Z,18880
2016-10-03T08:17:36.019Z,18720
2016-10-03T08:18:36.039Z,18368
2016-10-03T08:19:36.027Z,17664
2016-10-03T08:20:35.979Z,19328
2016-10-03T08:21:35.970Z,20640
2016-10-03T08:22:35.943Z,21824
2016-10-03T08:23:35.917Z,21600
2016-10-03T08:24:35.931Z,21568
2016-10-03T08:25:35.925Z,23040
2016-10-03T08:26:35.879Z,21920
2016-10-03T08:27:35.862Z,20416
2016-10-03T08:28:35.841Z,18688
2016-10-03T08:29:35.854Z,18720
2016-10-03T08:30:35.804Z,19392
2016-10-03T08:31:35.779Z,19424
2016-10-03T08:32:35.772Z,20096
2016-10-03T08:34:35.739Z,20832
2016-10-03T08:35:35.699Z,19392
2016-10-03T08:36:35.692Z,16488
2016-10-03T08:37:35.663Z,17792
2016-10-03T08:38:35.664Z,18656
2016-10-03T08:39:35.656Z,17132
2016-10-03T08:40:35.628Z,16384
2016-10-03T08:41:35.606Z,17016
2016-10-03T08:42:35.589Z,19328
2016-10-03T08:43:35.565Z,20768
2016-10-03T08:44:35.543Z,21888
2016-10-03T08:45:35.536Z,20864
2016-10-03T08:46:35.534Z,19296
2016-10-03T08:47:35.485Z,19808
2016-10-03T08:48:35.493Z,21376
2016-10-03T08:49:35.465Z,24352
2016-10-03T08:50:35.426Z,23840
2016-10-03T08:51:35.423Z,24288
2016-10-03T08:52:35.425Z,23424
2016-10-03T08:53:35.412Z,21696
2016-10-03T08:54:35.380Z,20928
2016-10-03T08:55:35.349Z,20224
2016-10-03T08:56:35.344Z,19648
2016-10-03T08:57:35.326Z,21632
2016-10-03T08:58:35.307Z,23232
2016-10-03T08:59:35.305Z,21920
2016-10-03T09:00:35.286Z,19840
2016-10-03T09:01:35.245Z,18720
2016-10-03T09:02:35.258Z,18304
2016-10-03T09:03:35.247Z,18432
2016-10-03T09:04:35.229Z,18400
2016-10-03T09:05:35.199Z,18528
2016-10-03T09:06:35.170Z,18432
2016-10-03T09:07:35.192Z,17856
2016-10-03T09:08:35.165Z,16760
2016-10-03T09:09:35.152Z,16276
2016-10-03T09:10:35.127Z,16916
2016-10-03T09:11:35.112Z,18304
2016-10-03T09:12:35.103Z,19456
2016-10-03T09:13:35.067Z,19712
2016-10-03T09:14:35.055Z,19264
2016-10-03T09:15:35.019Z,19584
2016-10-03T09:16:35.041Z,18816
2016-10-03T09:17:35.002Z,18656
2016-10-03T09:18:34.974Z,19712
2016-10-03T09:19:34.957Z,21792
2016-10-03T09:20:34.962Z,20352
2016-10-03T09:21:35.289Z,22272
2016-10-03T09:22:34.951Z,21600
2016-10-03T09:23:34.915Z,19264
2016-10-03T09:24:34.911Z,18624
2016-10-03T09:25:34.908Z,20160
2016-10-03T09:26:34.860Z,21408
2016-10-03T09:27:35.365Z,21504
2016-10-03T09:28:34.845Z,20416
2016-10-03T09:29:34.834Z,21152
2016-10-03T09:30:34.805Z,22912
2016-10-03T09:31:34.769Z,23584
2016-10-03T09:32:34.771Z,24256
2016-10-03T09:33:34.776Z,24736
2016-10-03T09:34:34.768Z,23136
2016-10-03T09:35:34.703Z,22432
2016-10-03T09:36:34.699Z,21024
2016-10-03T09:37:34.682Z,24608
2016-10-03T09:38:34.652Z,26336
2016-10-03T09:39:34.684Z,23552
2016-10-03T09:40:34.657Z,23392
2016-10-03T09:41:34.620Z,25696
2016-10-03T09:42:34.620Z,24672
2016-10-03T09:43:34.594Z,21664
2016-10-03T09:44:34.601Z,23008
2016-10-03T09:45:34.570Z,24064
2016-10-03T09:46:34.565Z,26144
2016-10-03T09:47:34.542Z,26496
2016-10-03T09:48:34.547Z,25696
2016-10-03T09:49:34.503Z,24672
2016-10-03T09:50:34.502Z,23904
2016-10-03T09:51:34.489Z,25504
2016-10-03T09:52:34.465Z,25920
2016-10-03T09:53:34.420Z,23552
2016-10-03T09:54:34.408Z,21024
2016-10-03T09:55:34.418Z,22272
2016-10-03T09:56:34.412Z,23520
2016-10-03T09:57:34.375Z,23008
2016-10-03T09:58:34.360Z,24832
2016-10-03T09:59:34.353Z,26304
2016-10-03T10:00:34.331Z,24704
2016-10-03T10:01:34.335Z,24800
2016-10-03T10:02:34.319Z,24992
2016-10-03T10:03:34.282Z,24416
2016-10-03T10:04:34.281Z,24128
2016-10-03T10:05:34.243Z,23872
2016-10-03T10:06:34.249Z,22944
2016-10-03T10:07:34.200Z,23456
2016-10-03T10:08:34.206Z,23552
2016-10-03T10:09:34.196Z,24320
2016-10-03T10:10:34.202Z,26368
2016-10-03T10:11:34.180Z,24928
2016-10-03T10:12:34.127Z,24544
2016-10-03T10:13:34.141Z,24064
2016-10-03T10:14:34.107Z,21280
2016-10-03T10:15:34.114Z,19936
2016-10-03T10:16:34.100Z,18720
2016-10-03T10:17:34.058Z,19616
2016-10-03T10:18:34.058Z,22656
2016-10-03T10:19:34.056Z,22848
2016-10-03T10:20:34.033Z,25664
2016-10-03T10:21:34.042Z,26176
2016-10-03T10:22:33.985Z,30272
2016-10-03T10:23:33.992Z,33088
2016-10-03T10:24:33.966Z,30304
2016-10-03T10:25:33.959Z,28384
2016-10-03T10:26:33.933Z,30752
2016-10-03T10:27:33.941Z,32800
2016-10-03T10:28:33.914Z,35328
2016-10-03T10:29:33.877Z,28096
2016-10-03T10:30:33.873Z,38912
2016-10-03T10:31:33.840Z,31040
2016-10-03T10:32:33.856Z,29792
2016-10-03T10:33:33.820Z,29888
2016-10-03T10:34:33.818Z,32928
2016-10-03T10:35:33.771Z,31168
2016-10-03T10:36:33.781Z,31808
2016-10-03T10:37:33.773Z,28448
2016-10-03T10:38:33.738Z,32672
2016-10-03T10:39:33.741Z,30816
2016-10-03T10:40:33.720Z,28832
2016-10-03T10:41:33.694Z,35712
2016-10-03T10:42:33.676Z,45952
2016-10-03T10:43:33.642Z,35648
2016-10-03T10:44:33.660Z,24480
2016-10-03T10:45:33.626Z,28672
2016-10-03T10:46:33.632Z,29984
2016-10-03T10:47:33.591Z,24096
2016-10-03T10:48:33.865Z,26784
2016-10-03T10:49:33.565Z,23776
2016-10-03T10:50:33.520Z,34400
2016-10-03T10:51:33.517Z,30336
2016-10-03T10:52:33.502Z,28544
2016-10-03T10:53:33.479Z,28320
2016-10-03T10:54:33.486Z,31744
2016-10-03T10:55:33.468Z,23904
2016-10-03T10:56:33.430Z,25824
2016-10-03T10:57:33.412Z,30496
2016-10-03T10:58:33.420Z,27392
2016-10-03T10:59:33.694Z,25024
2016-10-03T11:00:33.393Z,25472
2016-10-03T11:01:33.339Z,24608
2016-10-03T11:02:33.352Z,25376
2016-10-03T11:03:33.324Z,32160
2016-10-03T11:04:33.286Z,37632
2016-10-03T11:05:33.278Z,38752
2016-10-03T11:06:33.273Z,39712
2016-10-03T11:07:33.243Z,37760
2016-10-03T11:08:33.214Z,33344
2016-10-03T11:09:33.212Z,35520
2016-10-03T11:10:33.177Z,36160
2016-10-03T11:11:33.180Z,29376
2016-10-03T11:12:33.157Z,28064
2016-10-03T11:13:33.131Z,27968
2016-10-03T11:14:33.117Z,26016
2016-10-03T11:15:33.103Z,32192
2016-10-03T11:16:33.066Z,31648
2016-10-03T11:17:33.073Z,31392
2016-10-03T11:18:33.046Z,27392
2016-10-03T11:19:33.016Z,28288
2016-10-03T11:20:33.019Z,31744
2016-10-03T11:21:32.992Z,36288
2016-10-03T11:22:32.976Z,41856
2016-10-03T11:23:32.965Z,37408
2016-10-03T11:24:32.932Z,33600
2016-10-03T11:25:32.916Z,36832
2016-10-03T11:26:32.919Z,32576
2016-10-03T11:27:32.882Z,30080
2016-10-03T11:28:32.877Z,29504
2016-10-03T11:29:32.843Z,29696
2016-10-03T11:30:32.839Z,32896
2016-10-03T11:31:32.807Z,30208
2016-10-03T11:32:32.813Z,29568
2016-10-03T11:33:32.785Z,31008
2016-10-03T11:34:32.752Z,41376
2016-10-03T11:35:32.745Z,38720
2016-10-03T11:36:32.724Z,38464
2016-10-03T11:37:32.698Z,32064
2016-10-03T11:38:32.698Z,31456
2016-10-03T11:39:32.668Z,29632
2016-10-03T11:40:32.956Z,29024
2016-10-03T11:41:32.636Z,28064
2016-10-03T11:42:32.619Z,33184
2016-10-03T11:43:32.589Z,41152
2016-10-03T11:44:32.596Z,51392
2016-10-03T11:45:32.591Z,46336
2016-10-03T11:46:32.573Z,50432
2016-10-03T11:47:32.537Z,49984
2016-10-03T11:48:32.524Z,37088
2016-10-03T11:49:32.510Z,31072
2016-10-03T11:50:32.496Z,33280
2016-10-03T11:51:32.476Z,33952
2016-10-03T11:52:32.459Z,38592
2016-10-03T11:53:32.453Z,35456
2016-10-03T11:54:32.432Z,34176
2016-10-03T11:55:32.411Z,44096
2016-10-03T11:56:32.392Z,37440
2016-10-03T11:57:32.391Z,35424
2016-10-03T11:58:32.373Z,38336
2016-10-03T11:59:32.368Z,31680
2016-10-03T12:00:32.346Z,33408
2016-10-03T12:01:32.327Z,34336
2016-10-03T12:02:32.282Z,38624
2016-10-03T12:03:32.278Z,41504
2016-10-03T12:04:32.262Z,51520
2016-10-03T12:05:32.261Z,48192
2016-10-03T12:06:32.216Z,46496
2016-10-03T12:07:32.188Z,47424
2016-10-03T12:08:32.224Z,40416
2016-10-03T12:09:32.155Z,28896
2016-10-03T12:10:32.155Z,25952
2016-10-03T12:11:32.163Z,23744
2016-10-03T12:12:32.150Z,21632
2016-10-03T12:13:32.121Z,24000
2016-10-03T12:14:32.077Z,29344
2016-10-03T12:15:32.091Z,31584
2016-10-03T12:16:32.052Z,26592
2016-10-03T12:17:32.067Z,24384
2016-10-03T12:18:32.056Z,24992
2016-10-03T12:19:32.017Z,23136
2016-10-03T12:20:32.017Z,23712
2016-10-03T12:21:31.969Z,21600
2016-10-03T12:22:31.958Z,20128
2016-10-03T12:23:31.953Z,19552
2016-10-03T12:24:31.940Z,18720
2016-10-03T12:25:31.910Z,19296
2016-10-03T12:26:31.873Z,20160
2016-10-03T12:27:31.893Z,20192
2016-10-03T12:28:31.873Z,18880
2016-10-03T12:29:31.838Z,22144
2016-10-03T12:30:31.819Z,25440
2016-10-03T12:31:31.823Z,23392
2016-10-03T12:32:31.805Z,20576
2016-10-03T12:33:31.763Z,22208
2016-10-03T12:34:31.753Z,24480
2016-10-03T12:35:31.735Z,22016
2016-10-03T12:36:31.729Z,29280
2016-10-03T12:37:31.724Z,22400
2016-10-03T12:38:31.703Z,21760
2016-10-03T12:39:31.676Z,19712
2016-10-03T12:40:31.632Z,20576
2016-10-03T12:41:31.629Z,26976
2016-10-03T12:42:31.623Z,23936
2016-10-03T12:43:31.920Z,22944
2016-10-03T12:44:31.563Z,22976
2016-10-03T12:45:31.557Z,20704
2016-10-03T12:46:31.566Z,16648
2016-10-03T12:47:31.532Z,16820
2016-10-03T12:48:31.505Z,28512
2016-10-03T12:49:31.504Z,30752
2016-10-03T12:50:31.477Z,29408
2016-10-03T12:51:31.482Z,37088
2016-10-03T12:52:31.450Z,37952
2016-10-03T12:53:31.417Z,39680
2016-10-03T12:54:31.428Z,43680
2016-10-03T12:55:31.609Z,36000
2016-10-03T12:56:31.352Z,28000
2016-10-03T12:57:31.364Z,17072
2016-10-03T12:58:31.328Z,21056
2016-10-03T12:59:31.294Z,25792
2016-10-03T13:00:31.285Z,24544
2016-10-03T13:01:31.290Z,26272
2016-10-03T13:02:31.260Z,25536
2016-10-03T13:03:31.245Z,24544
2016-10-03T13:04:31.230Z,22432
2016-10-03T13:05:31.519Z,32640
2016-10-03T13:06:31.206Z,24576
2016-10-03T13:07:31.171Z,25696
2016-10-03T13:08:31.149Z,20000
2016-10-03T13:09:31.127Z,19936
2016-10-03T13:10:31.115Z,15664
2016-10-03T13:11:31.122Z,16972
2016-10-03T13:12:31.080Z,14108
2016-10-03T13:13:31.220Z,17024
2016-10-03T13:14:31.045Z,18560
2016-10-03T13:15:31.041Z,17472
2016-10-03T13:16:31.001Z,17172
2016-10-03T13:17:30.983Z,24480
2016-10-03T13:18:30.971Z,28608
2016-10-03T13:19:30.956Z,23840
2016-10-03T13:20:30.926Z,20320
2016-10-03T13:21:30.922Z,19808
2016-10-03T13:22:30.913Z,15328
2016-10-03T13:23:30.890Z,17056
2016-10-03T13:24:30.864Z,25440
2016-10-03T13:25:30.861Z,26496
2016-10-03T13:26:30.841Z,16724
2016-10-03T13:27:30.803Z,21568
2016-10-03T13:28:30.807Z,19680
2016-10-03T13:29:30.758Z,18592
2016-10-03T13:30:30.777Z,19456
2016-10-03T13:31:30.743Z,21120
2016-10-03T13:32:30.724Z,25440
2016-10-03T13:33:30.715Z,25376
2016-10-03T13:34:30.682Z,14580
2016-10-03T13:35:30.664Z,20640
2016-10-03T13:36:30.707Z,16696
2016-10-03T13:37:30.629Z,18816
2016-10-03T13:38:30.633Z,19840